Time;durP1;ratioP1;P1;durP2;ratioP2;P2;SDS_P1;SDS_P2;PMS_P1;PMS_P2;Temp;Humidity;BMP_temperature;BMP_pressure;BME280_temperature;BME280_humidity;BME280_pressure;Samples;Min_cycle;Max_cycle;Signal;HPM_P1;HPM_P2
2023/11/25 00:02:11;;;;;;;10.82;4.38;;;;;;;19.94;100.00;99855.78;10448597;28;20504;-85
2023/11/25 00:07:36;;;;;;;8.07;3.58;;;;;;;19.96;100.00;99854.75;10449722;28;20397;-87
2023/11/25 00:12:59;;;;;;;9.20;3.13;;;;;;;19.99;100.00;99849.31;10450374;28;20532;-86
2023/11/25 00:18:23;;;;;;;6.07;2.83;;;;;;;19.98;100.00;99842.19;10449559;28;20344;-86
2023/11/25 00:23:48;;;;;;;13.60;4.10;;;;;;;20.12;100.00;99834.50;10450713;28;20393;-88
2023/11/25 00:29:11;;;;;;;12.93;4.43;;;;;;;20.08;100.00;99845.41;10450809;28;20664;-88
2023/11/25 00:34:34;;;;;;;14.10;3.00;;;;;;;20.08;100.00;99848.09;10448900;28;20117;-88
2023/11/25 00:40:00;;;;;;;11.15;2.20;;;;;;;19.90;100.00;99852.31;10450572;28;20052;-87
2023/11/25 00:45:25;;;;;;;13.10;3.15;;;;;;;19.73;100.00;99833.31;10437009;28;20405;-88
2023/11/25 00:50:49;;;;;;;11.80;2.42;;;;;;;19.56;100.00;99833.09;10435721;28;20040;-88
2023/11/25 00:56:15;;;;;;;10.93;2.50;;;;;;;19.41;100.00;99799.66;10434412;28;20528;-87
2023/11/25 01:01:39;;;;;;;9.70;2.05;;;;;;;19.75;95.55;99781.47;10447931;28;20068;-89
2023/11/25 01:07:02;;;;;;;12.82;2.20;;;;;;;19.78;94.42;99778.66;10435597;28;20048;-88
2023/11/25 01:12:27;;;;;;;19.90;3.30;;;;;;;19.96;89.47;99749.41;10434351;28;20401;-89
2023/11/25 01:17:51;;;;;;;15.30;2.53;;;;;;;20.00;89.17;99753.72;10449014;28;20045;-89
2023/11/25 01:23:16;;;;;;;13.90;2.10;;;;;;;19.96;91.75;99765.47;10435320;28;20068;-89
2023/11/25 01:28:42;;;;;;;10.38;3.03;;;;;;;19.89;93.55;99778.22;10438816;28;20052;-88
2023/11/25 01:34:06;;;;;;;21.35;2.80;;;;;;;19.84;93.96;99764.16;10450759;28;20041;-88
2023/11/25 01:39:30;;;;;;;20.50;2.55;;;;;;;19.57;96.92;99760.72;10455770;28;20560;-88
2023/11/25 01:44:55;;;;;;;17.60;3.35;;;;;;;19.57;96.47;99743.78;10445843;28;20055;-89
2023/11/25 01:50:18;;;;;;;17.20;2.50;;;;;;;19.24;100.00;99743.16;10455966;28;20068;-89
2023/11/25 01:55:45;;;;;;;11.27;2.47;;;;;;;19.27;99.33;99727.03;10454631;28;20139;-89
2023/11/25 02:01:13;;;;;;;16.63;2.97;;;;;;;19.37;97.43;99718.59;10440367;28;20601;-89
2023/11/25 02:06:37;;;;;;;17.00;4.18;;;;;;;18.96;100.00;99698.72;10441406;28;20522;-89
2023/11/25 02:12:01;;;;;;;13.25;2.95;;;;;;;18.49;100.00;99694.09;10468614;28;20044;-88
2023/11/25 02:17:26;;;;;;;23.45;3.42;;;;;;;18.43;100.00;99684.50;10441462;28;20045;-89
2023/11/25 02:22:57;;;;;;;16.75;3.60;;;;;;;18.33;100.00;99672.34;10450829;28;20055;-89
2023/11/25 02:28:21;;;;;;;15.68;3.33;;;;;;;18.09;100.00;99675.84;10440881;28;20056;-88
2023/11/25 02:33:45;;;;;;;14.15;3.47;;;;;;;18.36;100.00;99674.06;10454359;28;20444;-88
2023/11/25 02:39:14;;;;;;;12.88;2.63;;;;;;;18.49;100.00;99686.09;10453809;28;20057;-88
2023/11/25 02:44:38;;;;;;;17.05;3.13;;;;;;;18.50;100.00;99706.53;10453805;28;20664;-89
2023/11/25 02:50:02;;;;;;;16.77;3.05;;;;;;;18.35;100.00;99707.03;10439011;28;20052;-90
2023/11/25 02:55:29;;;;;;;19.00;2.97;;;;;;;18.37;100.00;99691.84;10438888;28;20836;-89
2023/11/25 03:01:00;;;;;;;9.75;3.08;;;;;;;18.51;100.00;99669.03;10431262;28;20060;-89
2023/11/25 03:06:24;;;;;;;14.88;3.30;;;;;;;18.46;100.00;99656.78;10441697;28;20059;-86
2023/11/25 03:11:49;;;;;;;19.80;3.00;;;;;;;18.52;100.00;99675.28;10463351;28;20045;-87
2023/11/25 03:17:13;;;;;;;15.65;3.75;;;;;;;18.47;100.00;99679.91;10451517;28;20044;-87
2023/11/25 03:22:37;;;;;;;17.77;3.10;;;;;;;18.37;100.00;99654.44;10442717;28;20060;-86
2023/11/25 03:28:07;;;;;;;17.77;3.30;;;;;;;18.37;100.00;99670.47;10452936;28;20447;-87
2023/11/25 03:33:31;;;;;;;14.77;2.50;;;;;;;18.23;100.00;99665.59;10438912;28;20432;-88
2023/11/25 03:38:54;;;;;;;12.60;2.08;;;;;;;18.28;100.00;99679.66;10438114;28;20049;-87
2023/11/25 03:44:25;;;;;;;15.68;2.65;;;;;;;18.47;100.00;99695.94;10442198;28;20045;-87
2023/11/25 03:49:49;;;;;;;11.27;2.58;;;;;;;18.41;100.00;99701.50;10451279;28;20041;-87
2023/11/25 03:55:13;;;;;;;13.05;3.42;;;;;;;18.49;100.00;99711.00;10437626;28;20041;-87
2023/11/25 04:00:38;;;;;;;9.02;3.20;;;;;;;18.35;100.00;99699.91;10435705;28;20059;-87
2023/11/25 04:06:04;;;;;;;15.18;2.95;;;;;;;18.58;100.00;99691.13;10448656;28;20099;-87
2023/11/25 04:11:28;;;;;;;13.38;3.20;;;;;;;18.47;100.00;99659.41;10437639;28;20524;-87
2023/11/25 04:16:55;;;;;;;7.07;2.42;;;;;;;18.62;100.00;99653.56;10450472;28;20068;-86
2023/11/25 04:22:19;;;;;;;11.10;2.67;;;;;;;19.07;100.00;99643.00;10450075;28;20044;-87
2023/11/25 04:27:46;;;;;;;9.23;2.80;;;;;;;19.30;100.00;99638.56;10436402;28;20432;-87
2023/11/25 04:33:14;;;;;;;11.93;2.90;;;;;;;19.38;100.00;99599.03;10436927;28;20073;-87
2023/11/25 04:38:39;;;;;;;13.60;3.08;;;;;;;19.59;100.00;99603.56;10436168;28;20445;-88
2023/11/25 04:44:03;;;;;;;10.57;2.95;;;;;;;19.61;100.00;99625.81;10449313;28;20041;-87
2023/11/25 04:49:28;;;;;;;11.40;3.40;;;;;;;19.39;100.00;99628.41;10448295;28;20059;-88
2023/11/25 04:54:51;;;;;;;14.32;2.60;;;;;;;19.33;100.00;99603.69;10449367;28;20393;-88
2023/11/25 05:00:17;;;;;;;14.70;3.22;;;;;;;19.17;100.00;99600.72;10435621;28;20136;-87
2023/11/25 05:05:42;;;;;;;16.83;2.55;;;;;;;19.15;100.00;99618.66;10455081;28;20140;-85
2023/11/25 05:11:05;;;;;;;16.27;3.65;;;;;;;19.28;100.00;99627.97;10457948;28;20049;-86
2023/11/25 05:16:29;;;;;;;18.20;3.60;;;;;;;19.29;100.00;99655.59;10456717;28;20077;-86
2023/11/25 05:21:54;;;;;;;9.10;2.75;;;;;;;19.35;100.00;99653.56;10456476;28;20089;-86
2023/11/25 05:27:19;;;;;;;16.85;3.65;;;;;;;19.50;100.00;99662.81;10456925;28;20132;-87
2023/11/25 05:32:42;;;;;;;8.95;2.65;;;;;;;19.57;100.00;99650.06;10456803;28;20037;-87
2023/11/25 05:38:08;;;;;;;13.82;3.08;;;;;;;19.45;100.00;99630.84;10456816;28;20060;-86
2023/11/25 05:43:31;;;;;;;8.40;3.10;;;;;;;19.59;100.00;99651.75;10456316;28;20053;-87
2023/11/25 05:48:56;;;;;;;13.60;3.42;;;;;;;19.93;100.00;99659.34;10458603;28;20048;-87
2023/11/25 05:54:20;;;;;;;13.48;3.15;;;;;;;20.26;100.00;99652.59;10441477;28;20470;-87
2023/11/25 05:59:44;;;;;;;17.23;3.42;;;;;;;21.86;100.00;99675.81;10455463;28;20132;-87
2023/11/25 06:05:09;;;;;;;15.05;3.60;;;;;;;23.47;92.48;99674.75;10454594;28;20111;-87
2023/11/25 06:10:33;;;;;;;14.93;3.78;;;;;;;24.09;83.71;99671.22;10455450;28;20071;-86
2023/11/25 06:15:57;;;;;;;15.35;3.60;;;;;;;21.75;100.00;99653.09;10453702;28;20059;-86
2023/11/25 06:21:20;;;;;;;15.43;3.67;;;;;;;21.11;100.00;99636.41;10454940;28;20073;-87
2023/11/25 06:26:45;;;;;;;13.23;4.82;;;;;;;20.84;100.00;99630.47;10445757;28;20056;-87
2023/11/25 06:32:08;;;;;;;15.13;3.45;;;;;;;20.56;100.00;99628.13;10442780;28;20056;-87
2023/11/25 06:37:33;;;;;;;9.90;3.25;;;;;;;21.09;100.00;99629.28;10453723;28;20094;-87
2023/11/25 06:42:58;;;;;;;9.38;2.97;;;;;;;22.60;100.00;99620.13;10449777;28;20037;-86
2023/11/25 06:48:23;;;;;;;20.65;4.53;;;;;;;22.49;100.00;99598.31;10452150;28;20103;-86
2023/11/25 06:53:47;;;;;;;16.25;3.40;;;;;;;21.40;100.00;99593.84;10445559;28;20752;-86
2023/11/25 06:59:12;;;;;;;14.15;3.30;;;;;;;21.55;100.00;99600.31;10453206;28;20037;-88
2023/11/25 07:04:36;;;;;;;8.68;2.72;;;;;;;22.05;100.00;99618.53;10449011;28;20136;-88
2023/11/25 07:09:59;;;;;;;15.90;3.08;;;;;;;22.74;100.00;99615.88;10453561;28;20131;-89
2023/11/25 07:15:24;;;;;;;6.63;2.03;;;;;;;22.53;100.00;99626.78;10453865;28;20359;-88
2023/11/25 07:20:47;;;;;;;14.75;2.80;;;;;;;22.63;93.72;99624.50;10437424;28;20052;-88
2023/11/25 07:26:11;;;;;;;8.88;2.17;;;;;;;23.40;88.23;99628.41;10452026;28;20041;-88
2023/11/25 07:31:36;;;;;;;10.30;2.30;;;;;;;24.49;73.34;99629.31;10453164;28;20568;-88
2023/11/25 07:36:59;;;;;;;9.20;2.70;;;;;;;24.27;73.58;99623.50;10452169;28;20052;-88
2023/11/25 07:42:23;;;;;;;14.65;3.03;;;;;;;23.82;74.17;99627.88;10451790;28;20057;-86
2023/11/25 07:47:47;;;;;;;8.63;1.83;;;;;;;24.54;67.79;99618.28;10424172;28;20640;-87
2023/11/25 07:53:11;;;;;;;9.73;1.90;;;;;;;24.97;59.94;99611.16;10432937;28;20373;-88
2023/11/25 07:58:34;;;;;;;10.70;2.03;;;;;;;25.40;53.36;99609.34;10435359;28;20122;-84
2023/11/25 08:04:01;;;;;;;10.23;2.10;;;;;;;25.84;50.78;99608.31;10438839;28;20037;-86
2023/11/25 08:09:24;;;;;;;13.15;2.63;;;;;;;25.52;51.52;99604.97;10436805;28;20063;-87
2023/11/25 08:14:52;;;;;;;8.13;2.63;;;;;;;25.62;50.33;99607.00;10421182;28;20048;-87
2023/11/25 08:20:18;;;;;;;5.55;1.60;;;;;;;27.36;45.29;99587.84;10447466;28;20049;-87
2023/11/25 08:25:41;;;;;;;4.50;1.42;;;;;;;30.02;40.34;99588.78;10437081;28;20436;-85
2023/11/25 08:31:05;;;;;;;6.93;2.17;;;;;;;31.12;36.82;99577.47;10438208;28;20712;-87
2023/11/25 08:36:30;;;;;;;11.23;1.83;;;;;;;29.62;39.23;99561.25;10406207;28;20501;-86
2023/11/25 08:41:54;;;;;;;6.97;1.70;;;;;;;29.37;38.41;99556.09;10405176;28;20172;-84
2023/11/25 08:47:17;;;;;;;8.05;1.80;;;;;;;29.73;38.27;99550.38;10442952;28;20488;-85
2023/11/25 08:52:42;;;;;;;8.90;2.25;;;;;;;30.49;37.00;99550.25;10447618;28;20509;-87
2023/11/25 08:58:07;;;;;;;5.55;1.73;;;;;;;30.19;36.27;99531.06;10448909;28;20083;-87
2023/11/25 09:03:33;;;;;;;6.50;1.55;;;;;;;30.65;35.23;99510.78;10429403;28;20127;-87
2023/11/25 09:08:57;;;;;;;9.65;1.75;;;;;;;30.23;35.94;99497.13;10437312;28;20045;-85
2023/11/25 09:14:20;;;;;;;8.80;1.70;;;;;;;30.80;35.76;99498.50;10429431;28;20564;-86
2023/11/25 09:19:44;;;;;;;7.03;1.75;;;;;;;30.41;35.55;99491.94;10456522;28;20049;-82
2023/11/25 09:25:11;;;;;;;15.15;2.55;;;;;;;30.74;35.93;99475.38;10431364;28;20124;-84
2023/11/25 09:30:34;;;;;;;;;;;;;;;31.77;33.63;99458.81;10448439;28;20155;-89
2023/11/25 09:35:58;;;;;;;12.95;2.83;;;;;;;32.10;33.70;99455.63;10445370;28;19920;-81
2023/11/25 09:41:23;;;;;;;11.73;2.42;;;;;;;31.28;33.91;99457.84;10446125;28;20518;-85
2023/11/25 09:46:48;;;;;;;12.40;2.30;;;;;;;29.56;37.30;99458.38;10428642;28;20044;-87
2023/11/25 09:52:18;;;;;;;9.45;2.15;;;;;;;30.22;36.39;99446.38;10453263;28;20041;-87
2023/11/25 09:57:44;;;;;;;12.07;2.20;;;;;;;30.61;35.57;99442.03;10450726;28;20072;-87
2023/11/25 10:03:11;;;;;;;9.55;1.65;;;;;;;31.05;34.34;99442.72;10452832;28;20051;-88
2023/11/25 10:08:35;;;;;;;12.38;2.55;;;;;;;31.97;33.05;99414.09;10452279;28;20497;-83
2023/11/25 10:14:02;;;;;;;10.95;1.77;;;;;;;32.16;32.79;99421.47;10426615;28;20064;-84
2023/11/25 10:19:27;;;;;;;;;;;;;;;30.80;33.35;99405.81;10436935;28;20040;-85
2023/11/25 10:24:52;;;;;;;9.68;1.90;;;;;;;30.19;34.23;99394.91;10468718;28;19925;-86
2023/11/25 10:30:16;;;;;;;9.40;1.80;;;;;;;29.03;36.37;99360.38;10440892;28;20048;-86
2023/11/25 10:35:40;;;;;;;10.68;1.98;;;;;;;30.54;35.20;99350.06;10454704;28;20053;-83
2023/11/25 10:41:05;;;;;;;11.70;2.42;;;;;;;31.73;33.28;99327.19;10453768;28;20066;-87
2023/11/25 10:46:40;;;;;;;4.63;1.20;;;;;;;30.86;31.00;99318.03;10446228;28;20049;-86
2023/11/25 10:52:07;;;;;;;12.90;2.08;;;;;;;30.50;32.47;99300.47;10467629;28;20506;-87
2023/11/25 10:57:33;;;;;;;10.85;1.98;;;;;;;29.41;34.74;99301.91;10453665;28;20056;-87
2023/11/25 11:03:01;;;;;;;8.73;1.65;;;;;;;29.04;35.80;99288.72;10453172;28;20053;-86
2023/11/25 11:08:33;;;;;;;14.73;2.03;;;;;;;29.99;35.15;99276.88;10453952;28;20060;-86
2023/11/25 11:14:03;;;;;;;13.27;2.53;;;;;;;30.21;33.36;99262.19;10421299;28;20064;-85
2023/11/25 11:19:40;;;;;;;13.13;1.55;;;;;;;29.66;33.86;99249.88;10437055;28;20136;-87
2023/11/25 11:25:14;;;;;;;12.05;1.98;;;;;;;28.77;33.41;99248.41;10452567;28;20049;-86
2023/11/25 11:30:49;;;;;;;15.70;2.33;;;;;;;28.21;35.79;99244.94;10452832;28;20156;-84
2023/11/25 11:42:32;;;;;;;12.90;2.05;;;;;;;27.38;35.98;99212.63;10437248;28;20090;-87
2023/11/25 11:47:58;;;;;;;9.13;2.50;;;;;;;27.17;36.47;99205.34;10423378;28;20052;-86
2023/11/25 11:53:25;;;;;;;16.63;2.15;;;;;;;26.91;38.24;99194.63;10438245;28;20072;-82
2023/11/25 11:58:58;;;;;;;14.57;2.17;;;;;;;26.60;38.97;99181.69;10449296;28;20080;-86
2023/11/25 12:04:22;;;;;;;16.63;2.78;;;;;;;26.20;40.42;99179.22;10462616;28;20053;-88
2023/11/25 12:09:47;;;;;;;17.95;3.03;;;;;;;25.95;41.31;99168.47;10437389;28;20041;-82
2023/11/25 12:15:11;;;;;;;18.90;3.03;;;;;;;25.69;43.04;99174.91;10434041;28;20128;-81
2023/11/25 12:20:34;;;;;;;16.67;2.60;;;;;;;25.68;43.24;99189.41;10400400;28;20053;-83
2023/11/25 12:25:59;;;;;;;18.90;3.20;;;;;;;25.70;42.66;99209.94;10434791;28;20041;-83
2023/11/25 12:31:23;;;;;;;17.40;2.35;;;;;;;25.73;40.69;99206.16;10442113;28;20041;-85
2023/11/25 12:36:46;;;;;;;18.88;2.28;;;;;;;25.55;43.01;99208.28;10416287;28;20552;-87
2023/11/25 12:42:11;;;;;;;13.60;2.20;;;;;;;25.50;42.53;99209.59;10433541;28;20071;-85
2023/11/25 12:47:49;;;;;;;16.88;3.13;;;;;;;25.32;42.56;99195.56;10447257;28;20041;-86
2023/11/25 12:53:13;;;;;;;18.00;2.50;;;;;;;25.13;44.56;99214.00;10442580;28;20045;-86
2023/11/25 12:58:44;;;;;;;16.85;2.40;;;;;;;24.72;47.46;99223.06;10446429;28;20041;-84
2023/11/25 13:04:08;;;;;;;19.23;2.40;;;;;;;24.58;45.87;99215.88;10447160;28;20501;-86
2023/11/25 13:09:33;;;;;;;10.02;2.28;;;;;;;24.61;44.74;99225.63;10449722;28;20049;-86
2023/11/25 13:14:58;;;;;;;7.72;2.22;;;;;;;24.46;43.85;99232.03;10435420;28;20497;-86
2023/11/25 13:20:21;;;;;;;9.00;1.80;;;;;;;24.32;43.33;99221.25;10450274;28;20144;-86
2023/11/25 13:25:44;;;;;;;7.85;2.35;;;;;;;24.18;43.55;99225.69;10453521;28;20051;-86
2023/11/25 13:31:09;;;;;;;14.82;2.88;;;;;;;24.08;43.95;99216.47;10457759;28;20489;-85
2023/11/25 13:36:32;;;;;;;12.25;2.78;;;;;;;23.94;44.30;99223.72;10450369;28;20080;-86
2023/11/25 13:41:56;;;;;;;12.48;2.55;;;;;;;23.83;44.31;99222.56;10455611;28;20524;-85
2023/11/25 13:47:20;;;;;;;10.88;2.42;;;;;;;23.53;44.92;99205.63;10436798;28;20048;-85
2023/11/25 13:52:43;;;;;;;8.15;1.80;;;;;;;23.33;44.52;99211.34;10442498;28;20347;-86
2023/11/25 13:58:07;;;;;;;10.55;1.83;;;;;;;23.10;42.37;99215.47;10456718;28;20074;-85
2023/11/25 14:03:33;;;;;;;8.00;1.33;;;;;;;22.88;41.09;99220.38;10455381;28;20056;-86
2023/11/25 14:08:57;;;;;;;8.60;1.63;;;;;;;22.77;41.18;99230.94;10455706;28;20436;-86
2023/11/25 14:14:20;;;;;;;2.42;1.00;;;;;;;22.63;40.53;99226.31;10454339;28;20440;-85
2023/11/25 14:19:46;;;;;;;10.55;1.35;;;;;;;22.29;41.64;99226.53;10453762;28;20135;-85
2023/11/25 14:25:09;;;;;;;14.45;1.95;;;;;;;21.94;44.63;99210.53;10417894;28;20136;-84
2023/11/25 14:30:33;;;;;;;8.65;1.52;;;;;;;21.73;46.75;99227.81;10428169;28;20042;-84
2023/11/25 14:35:57;;;;;;;6.57;2.03;;;;;;;21.47;50.59;99253.41;10433474;28;20053;-85
2023/11/25 14:41:24;;;;;;;9.23;1.77;;;;;;;21.24;56.25;99246.56;10427405;28;20076;-86
2023/11/25 14:46:51;;;;;;;12.30;1.48;;;;;;;21.05;63.80;99245.75;10436164;28;20045;-84
2023/11/25 14:52:16;;;;;;;5.93;1.20;;;;;;;20.87;67.38;99244.03;10432993;28;20045;-86
2023/11/25 14:58:03;;;;;;;7.68;1.90;;;;;;;20.57;73.70;99246.41;10455720;28;20192;-80
2023/11/25 15:03:27;;;;;;;11.23;1.50;;;;;;;20.56;71.73;99258.06;10433806;28;20045;-83
2023/11/25 15:08:52;;;;;;;5.22;1.35;;;;;;;20.52;73.00;99251.16;10435258;28;20098;-84
2023/11/25 15:14:16;;;;;;;8.95;1.70;;;;;;;20.38;73.26;99253.63;10431834;28;20440;-84
2023/11/25 15:19:43;;;;;;;11.40;1.50;;;;;;;20.45;71.55;99249.72;10430116;28;20384;-83
2023/11/25 15:25:11;;;;;;;14.13;1.70;;;;;;;20.38;72.09;99258.97;10422060;28;20059;-86
2023/11/25 15:30:35;;;;;;;10.18;1.35;;;;;;;20.19;75.67;99262.53;10426537;28;20047;-82
2023/11/25 15:35:58;;;;;;;10.23;1.42;;;;;;;20.54;72.44;99268.03;10438539;28;20057;-85
2023/11/25 15:41:24;;;;;;;12.50;1.60;;;;;;;20.51;72.95;99271.72;10430612;28;20111;-83
2023/11/25 15:46:48;;;;;;;6.03;1.40;;;;;;;20.48;69.18;99271.00;10415210;28;20081;-85
2023/11/25 15:52:20;;;;;;;8.02;1.10;;;;;;;20.40;70.19;99263.34;10424947;28;20053;-88
2023/11/25 15:57:45;;;;;;;2.38;0.88;;;;;;;20.25;69.39;99277.44;10423595;28;20056;-85
2023/11/25 16:03:10;;;;;;;2.47;0.75;;;;;;;20.25;65.02;99270.28;10433882;28;20050;-86
2023/11/25 16:08:33;;;;;;;6.38;1.00;;;;;;;20.09;66.55;99242.44;10437203;28;20037;-82
2023/11/25 16:13:58;;;;;;;8.63;1.30;;;;;;;20.07;72.83;99240.81;10433594;28;20483;-85
2023/11/25 16:19:22;;;;;;;6.57;1.55;;;;;;;19.70;80.21;99237.16;10433951;28;20520;-87
2023/11/25 16:24:45;;;;;;;6.75;1.85;;;;;;;19.70;81.67;99238.97;10434193;28;20041;-86
2023/11/25 16:30:13;;;;;;;8.85;1.10;;;;;;;19.83;81.53;99241.00;10433050;28;20121;-88
2023/11/25 16:35:37;;;;;;;8.18;1.38;;;;;;;19.91;82.13;99246.00;10436255;28;20040;-86
2023/11/25 16:41:00;;;;;;;7.38;1.33;;;;;;;19.92;82.07;99250.44;10441190;28;20155;-88
2023/11/25 16:46:24;;;;;;;5.13;1.10;;;;;;;19.67;85.85;99252.50;10439875;28;20053;-83
2023/11/25 16:51:48;;;;;;;5.70;0.80;;;;;;;19.67;92.15;99263.22;10425145;28;20038;-85
2023/11/25 16:57:12;;;;;;;7.05;0.88;;;;;;;19.65;95.54;99236.50;10405328;28;20053;-86
2023/11/25 17:02:40;;;;;;;13.02;1.90;;;;;;;19.82;91.34;99244.63;10421839;28;20052;-89
2023/11/25 17:08:05;;;;;;;9.87;1.67;;;;;;;19.86;93.35;99240.88;10448575;28;20106;-90
2023/11/25 17:13:34;;;;;;;8.55;1.23;;;;;;;19.90;94.20;99249.63;10440499;28;20286;-85
2023/11/25 17:19:01;;;;;;;7.93;1.10;;;;;;;20.05;98.84;99262.31;10439140;28;20045;-88
2023/11/25 17:24:34;;;;;;;13.00;1.38;;;;;;;20.21;98.91;99251.75;10428128;28;20134;-88
2023/11/25 17:29:58;;;;;;;3.05;1.02;;;;;;;20.28;98.63;99223.72;10429475;28;20052;-84
2023/11/25 17:35:23;;;;;;;8.85;1.45;;;;;;;20.32;100.00;99224.41;10430334;28;20046;-81
2023/11/25 17:40:47;;;;;;;5.50;1.10;;;;;;;20.16;100.00;99200.16;10448107;28;20151;-81
2023/11/25 17:46:11;;;;;;;7.47;1.65;;;;;;;19.47;100.00;99202.56;10433580;28;20124;-81
2023/11/25 17:51:36;;;;;;;9.02;1.75;;;;;;;19.58;100.00;99202.06;10443400;28;20048;-87
2023/11/25 17:57:01;;;;;;;11.82;4.60;;;;;;;18.86;100.00;99212.38;10443740;28;20139;-80
2023/11/25 18:02:25;;;;;;;18.05;2.70;;;;;;;18.68;100.00;99195.34;10439473;28;20049;-83
2023/11/25 18:07:53;;;;;;;11.02;2.65;;;;;;;18.64;100.00;99197.25;10441651;28;20033;-81
2023/11/25 18:13:16;;;;;;;11.55;2.50;;;;;;;19.02;100.00;99190.28;10425391;28;20060;-82
2023/11/25 18:18:39;;;;;;;6.32;1.80;;;;;;;19.27;100.00;99175.78;10430267;28;20087;-81
2023/11/25 18:24:05;;;;;;;6.53;1.88;;;;;;;19.58;100.00;99121.75;10433196;28;20045;-80
2023/11/25 18:29:28;;;;;;;12.15;2.50;;;;;;;19.78;100.00;99165.38;10431383;28;20041;-79
2023/11/25 18:34:52;;;;;;;18.17;2.75;;;;;;;19.66;100.00;99133.84;10429565;28;20064;-82
2023/11/25 18:40:18;;;;;;;8.07;1.88;;;;;;;19.71;100.00;99115.72;10418736;28;20061;-81
2023/11/25 18:45:42;;;;;;;14.95;2.80;;;;;;;19.88;100.00;99139.03;10435179;28;20556;-79
2023/11/25 18:51:06;;;;;;;10.80;1.88;;;;;;;19.95;100.00;99169.06;10432481;28;20110;-81
2023/11/25 18:56:32;;;;;;;9.07;1.58;;;;;;;19.93;100.00;99182.53;10444197;28;20085;-81
2023/11/25 19:01:56;;;;;;;6.55;1.80;;;;;;;19.92;100.00;99178.09;10432446;28;20053;-81
2023/11/25 19:07:19;;;;;;;15.25;2.97;;;;;;;20.10;100.00;99200.47;10424771;28;20438;-83
2023/11/25 19:12:44;;;;;;;13.55;2.50;;;;;;;20.31;100.00;99164.56;10436119;28;20500;-82
2023/11/25 19:18:09;;;;;;;13.63;3.35;;;;;;;20.44;100.00;99140.72;10450673;28;20056;-83
2023/11/25 19:23:33;;;;;;;15.35;2.55;;;;;;;20.58;100.00;99144.47;10448605;28;20064;-79
2023/11/25 19:28:57;;;;;;;19.25;3.08;;;;;;;20.72;100.00;99121.41;10434763;28;20064;-80
2023/11/25 19:34:22;;;;;;;10.68;2.60;;;;;;;20.48;100.00;99105.63;10424313;28;20049;-83
2023/11/25 19:39:45;;;;;;;10.45;2.08;;;;;;;20.75;100.00;99095.28;10452632;28;20049;-83
2023/11/25 19:45:11;;;;;;;19.45;3.63;;;;;;;20.97;100.00;99141.50;10452637;28;20115;-79
2023/11/25 19:50:36;;;;;;;10.52;2.53;;;;;;;19.61;100.00;99191.22;10452946;28;20444;-79
2023/11/25 19:55:59;;;;;;;23.35;3.30;;;;;;;18.88;100.00;99234.59;10430662;28;20049;-83
2023/11/25 20:01:24;;;;;;;17.60;3.53;;;;;;;18.38;100.00;99228.66;10429739;28;20048;-82
2023/11/25 20:06:47;;;;;;;8.73;2.47;;;;;;;18.25;100.00;99268.34;10451183;28;20393;-87
2023/11/25 20:12:10;;;;;;;2.53;1.00;;;;;;;17.69;100.00;99247.38;10455840;28;20052;-86
2023/11/25 20:17:36;;;;;;;7.63;1.67;;;;;;;17.46;100.00;99269.53;10445706;28;20053;-89
2023/11/25 20:23:00;;;;;;;14.52;2.88;;;;;;;17.79;100.00;99258.56;10447719;28;20390;-91
2023/11/25 20:28:23;;;;;;;30.80;4.43;;;;;;;17.92;100.00;99233.13;10449442;28;20053;-89
2023/11/25 20:33:52;;;;;;;16.23;2.30;;;;;;;17.82;100.00;99240.66;10449838;28;20059;-88
2023/11/25 20:39:18;;;;;;;18.02;2.72;;;;;;;17.66;100.00;99244.81;10437499;28;20127;-91
2023/11/25 20:44:43;;;;;;;9.18;2.60;;;;;;;17.70;100.00;99242.91;10463378;28;20136;-90
2023/11/25 20:50:12;;;;;;;8.43;1.48;;;;;;;17.86;100.00;99282.31;10450401;28;20156;-88
2023/11/25 20:55:37;;;;;;;16.73;3.60;;;;;;;17.99;100.00;99223.09;10447697;28;20504;-91
2023/11/25 21:01:06;;;;;;;6.78;1.67;;;;;;;18.05;100.00;99221.06;10435038;28;20049;-92
2023/11/25 21:06:32;;;;;;;23.77;3.70;;;;;;;18.12;100.00;99171.81;10443430;28;20056;-90
2023/11/25 21:11:56;;;;;;;21.20;4.65;;;;;;;18.26;100.00;99123.16;10433455;28;20493;-91
2023/11/25 21:17:19;;;;;;;25.10;5.03;;;;;;;18.37;100.00;99122.72;10447963;28;20057;-92
2023/11/25 21:22:44;;;;;;;14.75;3.45;;;;;;;18.32;100.00;99150.47;10448684;28;20060;-93
2023/11/25 21:28:08;;;;;;;14.90;3.45;;;;;;;18.45;100.00;99157.97;10451471;28;20051;-93
2023/11/25 21:33:33;;;;;;;16.17;3.28;;;;;;;18.65;100.00;99155.34;10423863;28;20041;-93
2023/11/25 21:38:58;;;;;;;17.27;3.22;;;;;;;18.58;100.00;99153.88;10409587;28;20068;-93
2023/11/25 21:44:21;;;;;;;11.00;2.63;;;;;;;18.70;100.00;99132.88;10413321;28;20045;-90
2023/11/25 21:49:45;;;;;;;20.40;3.70;;;;;;;18.16;100.00;99081.75;10417422;28;20053;-89
2023/11/25 21:55:10;;;;;;;16.02;3.47;;;;;;;17.95;100.00;99115.56;10416410;28;20049;-86
2023/11/25 22:00:33;;;;;;;9.73;2.38;;;;;;;17.86;100.00;99123.94;10442604;28;20115;-89
2023/11/25 22:05:58;;;;;;;15.07;2.67;;;;;;;17.67;100.00;99139.81;10431220;28;20045;-93
2023/11/25 22:11:23;;;;;;;6.07;1.95;;;;;;;17.60;100.00;99210.31;10442973;28;20044;-93
2023/11/25 22:16:47;;;;;;;13.55;2.95;;;;;;;17.63;100.00;99217.38;10415261;28;20053;-92
2023/11/25 22:22:11;;;;;;;14.15;2.40;;;;;;;17.82;100.00;99224.63;10415681;28;20054;-93
2023/11/25 22:27:38;;;;;;;11.63;2.25;;;;;;;17.92;100.00;99193.09;10452770;28;20519;-93
2023/11/25 22:33:02;;;;;;;11.85;2.25;;;;;;;17.80;100.00;99175.78;10454361;28;20513;-89
2023/11/25 22:38:26;;;;;;;16.90;3.63;;;;;;;17.61;100.00;99171.19;10437728;28;20081;-91
2023/11/25 22:43:53;;;;;;;13.00;3.30;;;;;;;17.56;100.00;99142.00;10432166;28;20132;-92
2023/11/25 22:49:17;;;;;;;15.25;3.08;;;;;;;17.59;100.00;99139.19;10441579;28;20143;-93
2023/11/25 22:54:40;;;;;;;23.73;4.30;;;;;;;17.63;100.00;99153.34;10456837;28;20071;-93
2023/11/25 23:00:15;;;;;;;45.72;6.93;;;;;;;17.62;100.00;99132.91;10453207;28;20049;-91
2023/11/25 23:05:40;;;;;;;19.40;4.28;;;;;;;17.72;100.00;99124.47;10453853;28;20044;-89
2023/11/25 23:11:04;;;;;;;27.33;4.30;;;;;;;17.81;100.00;99124.13;10467526;28;20118;-93
2023/11/25 23:16:29;;;;;;;26.23;4.25;;;;;;;18.01;100.00;99111.75;10454317;28;20037;-93
2023/11/25 23:21:56;;;;;;;20.33;3.80;;;;;;;18.11;100.00;99127.38;10454386;28;20052;-92
2023/11/25 23:27:20;;;;;;;16.00;3.15;;;;;;;18.24;100.00;99115.22;10475468;28;20059;-89
2023/11/25 23:32:47;;;;;;;32.20;4.63;;;;;;;18.36;100.00;99134.34;10414209;28;20520;-90
2023/11/25 23:38:15;;;;;;;11.40;2.25;;;;;;;18.59;100.00;99136.91;10463474;28;20048;-89
2023/11/25 23:43:41;;;;;;;19.27;3.72;;;;;;;18.65;100.00;99115.28;10456352;28;20060;-89
2023/11/25 23:49:06;;;;;;;19.17;3.35;;;;;;;18.53;100.00;99123.78;10429119;28;20094;-89
2023/11/25 23:54:30;;;;;;;27.35;4.30;;;;;;;18.58;100.00;99103.09;10452278;28;20745;-89
2023/11/25 23:59:54;;;;;;;24.20;4.68;;;;;;;18.56;100.00;99119.22;10449211;28;20045;-87
